sensor_id;sensor_type;location;lat;lon;timestamp;temperature;humidity
17208;DHT22;8720;48.488;9.202;2022-11-15T00:00:47;12.50;57.30
17208;DHT22;8720;48.488;9.202;2022-11-15T00:03:32;12.50;57.10
17208;DHT22;8720;48.488;9.202;2022-11-15T00:06:18;12.50;57.00
17208;DHT22;8720;48.488;9.202;2022-11-15T00:09:04;12.50;56.90
17208;DHT22;8720;48.488;9.202;2022-11-15T00:11:52;12.50;56.80
17208;DHT22;8720;48.488;9.202;2022-11-15T00:14:38;12.50;56.50
17208;DHT22;8720;48.488;9.202;2022-11-15T00:17:27;12.50;56.70
17208;DHT22;8720;48.488;9.202;2022-11-15T00:20:13;12.40;56.60
17208;DHT22;8720;48.488;9.202;2022-11-15T00:23:03;12.40;56.20
17208;DHT22;8720;48.488;9.202;2022-11-15T00:25:55;12.30;55.70
17208;DHT22;8720;48.488;9.202;2022-11-15T00:28:43;12.10;55.30
17208;DHT22;8720;48.488;9.202;2022-11-15T00:31:29;12.00;55.50
17208;DHT22;8720;48.488;9.202;2022-11-15T00:34:14;11.80;55.50
17208;DHT22;8720;48.488;9.202;2022-11-15T00:37:03;11.60;55.50
17208;DHT22;8720;48.488;9.202;2022-11-15T00:39:49;11.50;55.50
17208;DHT22;8720;48.488;9.202;2022-11-15T00:42:34;11.30;55.50
17208;DHT22;8720;48.488;9.202;2022-11-15T00:45:21;11.10;55.50
17208;DHT22;8720;48.488;9.202;2022-11-15T00:48:07;11.00;55.70
17208;DHT22;8720;48.488;9.202;2022-11-15T00:50:53;10.80;55.80
17208;DHT22;8720;48.488;9.202;2022-11-15T00:53:39;10.70;56.00
17208;DHT22;8720;48.488;9.202;2022-11-15T00:56:28;10.60;56.10
17208;DHT22;8720;48.488;9.202;2022-11-15T00:59:13;10.40;56.20
17208;DHT22;8720;48.488;9.202;2022-11-15T01:02:00;10.30;56.30
17208;DHT22;8720;48.488;9.202;2022-11-15T01:04:46;10.20;56.50
17208;DHT22;8720;48.488;9.202;2022-11-15T01:07:32;10.10;56.60
17208;DHT22;8720;48.488;9.202;2022-11-15T01:10:18;10.00;56.70
17208;DHT22;8720;48.488;9.202;2022-11-15T01:13:03;9.90;57.90
17208;DHT22;8720;48.488;9.202;2022-11-15T01:15:49;9.90;58.10
17208;DHT22;8720;48.488;9.202;2022-11-15T01:18:36;9.80;58.30
17208;DHT22;8720;48.488;9.202;2022-11-15T01:21:22;9.70;58.40
17208;DHT22;8720;48.488;9.202;2022-11-15T01:24:08;9.60;58.60
17208;DHT22;8720;48.488;9.202;2022-11-15T01:26:57;9.60;58.80
17208;DHT22;8720;48.488;9.202;2022-11-15T01:29:43;9.50;58.80
17208;DHT22;8720;48.488;9.202;2022-11-15T01:32:28;9.40;58.80
17208;DHT22;8720;48.488;9.202;2022-11-15T01:35:16;9.40;59.00
17208;DHT22;8720;48.488;9.202;2022-11-15T01:38:01;9.30;59.10
17208;DHT22;8720;48.488;9.202;2022-11-15T01:40:47;9.30;59.20
17208;DHT22;8720;48.488;9.202;2022-11-15T01:43:35;9.20;59.20
17208;DHT22;8720;48.488;9.202;2022-11-15T01:46:28;9.10;59.30
17208;DHT22;8720;48.488;9.202;2022-11-15T01:49:18;9.10;59.40
17208;DHT22;8720;48.488;9.202;2022-11-15T01:52:09;9.00;59.40
17208;DHT22;8720;48.488;9.202;2022-11-15T01:55:03;9.00;59.60
17208;DHT22;8720;48.488;9.202;2022-11-15T01:57:56;8.90;60.10
17208;DHT22;8720;48.488;9.202;2022-11-15T02:00:44;8.90;59.80
17208;DHT22;8720;48.488;9.202;2022-11-15T02:03:36;8.80;59.80
17208;DHT22;8720;48.488;9.202;2022-11-15T02:06:26;8.80;59.80
17208;DHT22;8720;48.488;9.202;2022-11-15T02:09:14;8.70;59.80
17208;DHT22;8720;48.488;9.202;2022-11-15T02:12:03;8.70;60.00
17208;DHT22;8720;48.488;9.202;2022-11-15T02:14:54;8.60;60.00
17208;DHT22;8720;48.488;9.202;2022-11-15T02:18:06;8.60;60.10
17208;DHT22;8720;48.488;9.202;2022-11-15T02:21:16;8.60;60.50
17208;DHT22;8720;48.488;9.202;2022-11-15T02:24:34;8.50;60.60
17208;DHT22;8720;48.488;9.202;2022-11-15T02:28:03;8.50;60.70
17208;DHT22;8720;48.488;9.202;2022-11-15T02:31:17;8.50;61.00
17208;DHT22;8720;48.488;9.202;2022-11-15T02:34:16;8.50;61.30
17208;DHT22;8720;48.488;9.202;2022-11-15T02:37:16;8.50;61.50
17208;DHT22;8720;48.488;9.202;2022-11-15T02:40:16;8.50;61.70
17208;DHT22;8720;48.488;9.202;2022-11-15T02:43:10;8.50;61.90
17208;DHT22;8720;48.488;9.202;2022-11-15T02:46:21;8.50;62.10
17208;DHT22;8720;48.488;9.202;2022-11-15T02:49:32;8.50;62.10
17208;DHT22;8720;48.488;9.202;2022-11-15T02:52:22;8.50;62.20
17208;DHT22;8720;48.488;9.202;2022-11-15T02:55:28;8.50;62.70
17208;DHT22;8720;48.488;9.202;2022-11-15T02:58:43;8.60;63.50
17208;DHT22;8720;48.488;9.202;2022-11-15T03:02:10;8.70;63.70
17208;DHT22;8720;48.488;9.202;2022-11-15T03:05:14;8.80;63.60
17208;DHT22;8720;48.488;9.202;2022-11-15T03:08:08;9.00;63.30
17208;DHT22;8720;48.488;9.202;2022-11-15T03:11:03;9.00;62.70
17208;DHT22;8720;48.488;9.202;2022-11-15T03:13:57;9.10;62.20
17208;DHT22;8720;48.488;9.202;2022-11-15T03:19:28;9.00;61.90
17208;DHT22;8720;48.488;9.202;2022-11-15T03:22:19;9.00;62.10
17208;DHT22;8720;48.488;9.202;2022-11-15T03:25:11;9.00;62.60
17208;DHT22;8720;48.488;9.202;2022-11-15T03:28:04;9.00;63.00
17208;DHT22;8720;48.488;9.202;2022-11-15T03:30:53;9.10;63.40
17208;DHT22;8720;48.488;9.202;2022-11-15T03:33:40;9.20;63.80
17208;DHT22;8720;48.488;9.202;2022-11-15T03:36:30;9.40;63.70
17208;DHT22;8720;48.488;9.202;2022-11-15T03:39:20;9.40;63.00
17208;DHT22;8720;48.488;9.202;2022-11-15T03:42:12;9.50;62.50
17208;DHT22;8720;48.488;9.202;2022-11-15T03:45:13;9.40;61.90
17208;DHT22;8720;48.488;9.202;2022-11-15T03:48:05;9.40;61.60
17208;DHT22;8720;48.488;9.202;2022-11-15T03:50:56;9.40;61.60
17208;DHT22;8720;48.488;9.202;2022-11-15T03:53:43;9.30;61.40
17208;DHT22;8720;48.488;9.202;2022-11-15T03:56:29;9.20;61.20
17208;DHT22;8720;48.488;9.202;2022-11-15T03:59:15;9.20;61.30
17208;DHT22;8720;48.488;9.202;2022-11-15T04:02:00;9.00;61.20
17208;DHT22;8720;48.488;9.202;2022-11-15T04:04:46;9.00;61.20
17208;DHT22;8720;48.488;9.202;2022-11-15T04:07:31;8.90;61.20
17208;DHT22;8720;48.488;9.202;2022-11-15T04:10:19;8.80;61.00
17208;DHT22;8720;48.488;9.202;2022-11-15T04:13:04;8.70;60.90
17208;DHT22;8720;48.488;9.202;2022-11-15T04:15:50;8.60;61.10
17208;DHT22;8720;48.488;9.202;2022-11-15T04:18:36;8.60;61.30
17208;DHT22;8720;48.488;9.202;2022-11-15T04:21:22;8.50;61.40
17208;DHT22;8720;48.488;9.202;2022-11-15T04:24:28;8.40;61.40
17208;DHT22;8720;48.488;9.202;2022-11-15T04:27:15;8.40;61.60
17208;DHT22;8720;48.488;9.202;2022-11-15T04:30:05;8.30;61.60
17208;DHT22;8720;48.488;9.202;2022-11-15T04:32:52;8.30;61.80
17208;DHT22;8720;48.488;9.202;2022-11-15T04:35:37;8.20;61.80
17208;DHT22;8720;48.488;9.202;2022-11-15T04:38:23;8.20;62.00
17208;DHT22;8720;48.488;9.202;2022-11-15T04:41:08;8.20;62.10
17208;DHT22;8720;48.488;9.202;2022-11-15T04:43:57;8.10;62.10
17208;DHT22;8720;48.488;9.202;2022-11-15T04:46:43;8.10;62.40
17208;DHT22;8720;48.488;9.202;2022-11-15T04:49:29;8.10;62.50
17208;DHT22;8720;48.488;9.202;2022-11-15T04:52:14;8.10;62.60
17208;DHT22;8720;48.488;9.202;2022-11-15T04:55:00;8.10;62.70
17208;DHT22;8720;48.488;9.202;2022-11-15T04:57:46;8.10;62.80
17208;DHT22;8720;48.488;9.202;2022-11-15T05:00:33;8.10;63.00
17208;DHT22;8720;48.488;9.202;2022-11-15T05:03:18;8.10;63.20
17208;DHT22;8720;48.488;9.202;2022-11-15T05:06:22;8.10;63.20
17208;DHT22;8720;48.488;9.202;2022-11-15T05:09:08;8.10;63.30
17208;DHT22;8720;48.488;9.202;2022-11-15T05:11:54;8.10;63.40
17208;DHT22;8720;48.488;9.202;2022-11-15T05:14:39;8.10;63.50
17208;DHT22;8720;48.488;9.202;2022-11-15T05:17:26;8.10;63.60
17208;DHT22;8720;48.488;9.202;2022-11-15T05:20:13;8.10;63.80
17208;DHT22;8720;48.488;9.202;2022-11-15T05:22:59;8.10;64.00
17208;DHT22;8720;48.488;9.202;2022-11-15T05:25:45;8.10;64.00
17208;DHT22;8720;48.488;9.202;2022-11-15T05:28:30;8.10;64.00
17208;DHT22;8720;48.488;9.202;2022-11-15T05:31:16;8.10;64.10
17208;DHT22;8720;48.488;9.202;2022-11-15T05:34:04;8.20;64.40
17208;DHT22;8720;48.488;9.202;2022-11-15T05:36:50;8.20;64.70
17208;DHT22;8720;48.488;9.202;2022-11-15T05:39:36;8.20;64.80
17208;DHT22;8720;48.488;9.202;2022-11-15T05:42:22;8.20;64.90
17208;DHT22;8720;48.488;9.202;2022-11-15T05:45:08;8.30;65.00
17208;DHT22;8720;48.488;9.202;2022-11-15T05:47:56;8.30;64.90
17208;DHT22;8720;48.488;9.202;2022-11-15T05:50:47;8.30;64.80
17208;DHT22;8720;48.488;9.202;2022-11-15T05:53:35;8.30;64.80
17208;DHT22;8720;48.488;9.202;2022-11-15T05:56:22;8.30;64.80
17208;DHT22;8720;48.488;9.202;2022-11-15T05:59:08;8.40;64.80
17208;DHT22;8720;48.488;9.202;2022-11-15T06:01:57;8.40;64.80
17208;DHT22;8720;48.488;9.202;2022-11-15T06:04:43;8.40;64.80
17208;DHT22;8720;48.488;9.202;2022-11-15T06:07:30;8.30;64.60
17208;DHT22;8720;48.488;9.202;2022-11-15T06:10:16;8.30;64.40
17208;DHT22;8720;48.488;9.202;2022-11-15T06:13:03;8.30;64.20
17208;DHT22;8720;48.488;9.202;2022-11-15T06:15:50;8.30;64.20
17208;DHT22;8720;48.488;9.202;2022-11-15T06:18:36;8.30;64.30
17208;DHT22;8720;48.488;9.202;2022-11-15T06:21:22;8.30;64.40
17208;DHT22;8720;48.488;9.202;2022-11-15T06:24:10;8.30;64.50
17208;DHT22;8720;48.488;9.202;2022-11-15T06:26:55;8.30;65.00
17208;DHT22;8720;48.488;9.202;2022-11-15T06:29:41;8.30;65.50
17208;DHT22;8720;48.488;9.202;2022-11-15T06:32:28;8.40;66.10
17208;DHT22;8720;48.488;9.202;2022-11-15T06:35:14;8.50;66.40
17208;DHT22;8720;48.488;9.202;2022-11-15T06:38:03;8.60;66.40
17208;DHT22;8720;48.488;9.202;2022-11-15T06:40:50;8.80;66.50
17208;DHT22;8720;48.488;9.202;2022-11-15T06:43:36;9.00;66.40
17208;DHT22;8720;48.488;9.202;2022-11-15T06:46:22;9.20;66.40
17208;DHT22;8720;48.488;9.202;2022-11-15T06:49:08;9.30;66.10
17208;DHT22;8720;48.488;9.202;2022-11-15T06:51:54;9.50;65.80
17208;DHT22;8720;48.488;9.202;2022-11-15T06:54:40;9.60;65.60
17208;DHT22;8720;48.488;9.202;2022-11-15T06:57:27;9.70;65.40
17208;DHT22;8720;48.488;9.202;2022-11-15T07:00:13;9.80;65.10
17208;DHT22;8720;48.488;9.202;2022-11-15T07:03:00;10.00;64.10
17208;DHT22;8720;48.488;9.202;2022-11-15T07:05:51;10.10;64.00
17208;DHT22;8720;48.488;9.202;2022-11-15T07:08:38;10.30;63.50
17208;DHT22;8720;48.488;9.202;2022-11-15T07:11:25;10.40;63.60
17208;DHT22;8720;48.488;9.202;2022-11-15T07:14:12;10.50;63.20
17208;DHT22;8720;48.488;9.202;2022-11-15T07:16:58;10.70;62.70
17208;DHT22;8720;48.488;9.202;2022-11-15T07:19:44;10.80;62.80
17208;DHT22;8720;48.488;9.202;2022-11-15T07:22:30;11.00;62.70
17208;DHT22;8720;48.488;9.202;2022-11-15T07:25:15;11.10;62.60
17208;DHT22;8720;48.488;9.202;2022-11-15T07:28:02;11.30;62.30
17208;DHT22;8720;48.488;9.202;2022-11-15T07:30:50;11.50;62.00
17208;DHT22;8720;48.488;9.202;2022-11-15T07:33:36;11.60;61.60
17208;DHT22;8720;48.488;9.202;2022-11-15T07:36:22;11.80;61.60
17208;DHT22;8720;48.488;9.202;2022-11-15T07:39:08;11.90;61.30
17208;DHT22;8720;48.488;9.202;2022-11-15T07:41:54;12.10;61.20
17208;DHT22;8720;48.488;9.202;2022-11-15T07:44:59;12.20;60.80
17208;DHT22;8720;48.488;9.202;2022-11-15T07:47:47;12.30;60.30
17208;DHT22;8720;48.488;9.202;2022-11-15T07:50:33;12.40;59.80
17208;DHT22;8720;48.488;9.202;2022-11-15T07:53:18;12.50;60.00
17208;DHT22;8720;48.488;9.202;2022-11-15T07:56:08;12.70;59.90
17208;DHT22;8720;48.488;9.202;2022-11-15T07:58:55;12.80;59.40
17208;DHT22;8720;48.488;9.202;2022-11-15T08:01:41;12.90;59.70
17208;DHT22;8720;48.488;9.202;2022-11-15T08:04:28;13.10;59.50
17208;DHT22;8720;48.488;9.202;2022-11-15T08:07:14;13.20;58.70
17208;DHT22;8720;48.488;9.202;2022-11-15T08:10:00;13.30;58.80
17208;DHT22;8720;48.488;9.202;2022-11-15T08:12:47;13.50;58.50
17208;DHT22;8720;48.488;9.202;2022-11-15T08:15:36;13.50;58.30
17208;DHT22;8720;48.488;9.202;2022-11-15T08:18:23;13.60;57.80
17208;DHT22;8720;48.488;9.202;2022-11-15T08:21:17;13.70;57.80
17208;DHT22;8720;48.488;9.202;2022-11-15T08:24:04;13.70;56.90
17208;DHT22;8720;48.488;9.202;2022-11-15T08:26:50;13.80;57.30
17208;DHT22;8720;48.488;9.202;2022-11-15T08:29:38;13.80;57.10
17208;DHT22;8720;48.488;9.202;2022-11-15T08:32:28;13.90;57.00
17208;DHT22;8720;48.488;9.202;2022-11-15T08:35:24;13.90;56.40
17208;DHT22;8720;48.488;9.202;2022-11-15T08:38:14;13.90;56.30
17208;DHT22;8720;48.488;9.202;2022-11-15T08:41:01;14.00;56.20
17208;DHT22;8720;48.488;9.202;2022-11-15T08:43:50;13.90;56.40
17208;DHT22;8720;48.488;9.202;2022-11-15T08:46:35;13.90;56.40
17208;DHT22;8720;48.488;9.202;2022-11-15T08:49:21;13.90;56.20
17208;DHT22;8720;48.488;9.202;2022-11-15T08:52:07;13.80;55.90
17208;DHT22;8720;48.488;9.202;2022-11-15T08:54:53;13.70;55.90
17208;DHT22;8720;48.488;9.202;2022-11-15T08:57:39;13.70;55.70
17208;DHT22;8720;48.488;9.202;2022-11-15T09:00:25;13.60;55.90
17208;DHT22;8720;48.488;9.202;2022-11-15T09:03:11;13.50;56.00
17208;DHT22;8720;48.488;9.202;2022-11-15T09:06:03;13.40;56.20
17208;DHT22;8720;48.488;9.202;2022-11-15T09:08:49;13.30;56.20
17208;DHT22;8720;48.488;9.202;2022-11-15T09:11:36;13.20;56.30
17208;DHT22;8720;48.488;9.202;2022-11-15T09:14:22;13.10;56.30
17208;DHT22;8720;48.488;9.202;2022-11-15T09:17:08;13.10;56.80
17208;DHT22;8720;48.488;9.202;2022-11-15T09:19:54;13.00;56.80
17208;DHT22;8720;48.488;9.202;2022-11-15T09:22:40;13.00;56.90
17208;DHT22;8720;48.488;9.202;2022-11-15T09:25:26;12.90;57.00
17208;DHT22;8720;48.488;9.202;2022-11-15T09:28:14;12.90;57.20
17208;DHT22;8720;48.488;9.202;2022-11-15T09:31:05;12.90;57.30
17208;DHT22;8720;48.488;9.202;2022-11-15T09:33:54;12.90;57.60
17208;DHT22;8720;48.488;9.202;2022-11-15T09:36:42;12.90;57.90
17208;DHT22;8720;48.488;9.202;2022-11-15T09:39:30;13.00;58.10
17208;DHT22;8720;48.488;9.202;2022-11-15T09:42:29;13.00;58.20
17208;DHT22;8720;48.488;9.202;2022-11-15T09:45:34;13.00;57.70
17208;DHT22;8720;48.488;9.202;2022-11-15T09:48:46;13.00;57.90
17208;DHT22;8720;48.488;9.202;2022-11-15T09:51:40;13.10;57.90
17208;DHT22;8720;48.488;9.202;2022-11-15T09:54:25;13.10;58.30
17208;DHT22;8720;48.488;9.202;2022-11-15T09:56:56;13.10;57.90
17208;DHT22;8720;48.488;9.202;2022-11-15T09:59:48;13.20;58.40
17208;DHT22;8720;48.488;9.202;2022-11-15T10:02:57;13.20;57.90
17208;DHT22;8720;48.488;9.202;2022-11-15T10:05:37;13.20;58.60
17208;DHT22;8720;48.488;9.202;2022-11-15T10:08:30;13.20;58.50
17208;DHT22;8720;48.488;9.202;2022-11-15T10:11:06;13.20;58.50
17208;DHT22;8720;48.488;9.202;2022-11-15T10:13:41;13.30;58.90
17208;DHT22;8720;48.488;9.202;2022-11-15T10:16:24;13.40;59.00
17208;DHT22;8720;48.488;9.202;2022-11-15T10:19:14;13.40;58.90
17208;DHT22;8720;48.488;9.202;2022-11-15T10:21:53;13.50;58.90
17208;DHT22;8720;48.488;9.202;2022-11-15T10:24:35;13.60;59.00
17208;DHT22;8720;48.488;9.202;2022-11-15T10:27:10;13.70;59.10
17208;DHT22;8720;48.488;9.202;2022-11-15T10:29:43;13.70;59.10
17208;DHT22;8720;48.488;9.202;2022-11-15T10:32:13;13.80;59.00
17208;DHT22;8720;48.488;9.202;2022-11-15T10:34:43;13.90;59.90
17208;DHT22;8720;48.488;9.202;2022-11-15T10:37:10;13.90;59.00
17208;DHT22;8720;48.488;9.202;2022-11-15T10:39:38;14.00;59.30
17208;DHT22;8720;48.488;9.202;2022-11-15T10:42:25;14.10;59.20
17208;DHT22;8720;48.488;9.202;2022-11-15T10:44:54;14.10;58.60
17208;DHT22;8720;48.488;9.202;2022-11-15T10:47:27;14.30;59.40
17208;DHT22;8720;48.488;9.202;2022-11-15T10:50:04;14.30;58.80
17208;DHT22;8720;48.488;9.202;2022-11-15T10:52:35;14.40;58.40
17208;DHT22;8720;48.488;9.202;2022-11-15T10:55:23;14.40;58.90
17208;DHT22;8720;48.488;9.202;2022-11-15T10:57:54;14.50;58.90
17208;DHT22;8720;48.488;9.202;2022-11-15T11:00:34;14.60;58.90
17208;DHT22;8720;48.488;9.202;2022-11-15T11:03:05;14.70;58.60
17208;DHT22;8720;48.488;9.202;2022-11-15T11:06:04;14.80;58.70
17208;DHT22;8720;48.488;9.202;2022-11-15T11:08:33;14.90;57.90
17208;DHT22;8720;48.488;9.202;2022-11-15T11:11:02;15.00;58.50
17208;DHT22;8720;48.488;9.202;2022-11-15T11:13:32;15.00;58.00
17208;DHT22;8720;48.488;9.202;2022-11-15T11:16:28;15.10;58.90
17208;DHT22;8720;48.488;9.202;2022-11-15T11:19:22;15.10;57.20
17208;DHT22;8720;48.488;9.202;2022-11-15T11:22:17;15.20;57.50
17208;DHT22;8720;48.488;9.202;2022-11-15T11:25:04;15.20;57.50
17208;DHT22;8720;48.488;9.202;2022-11-15T11:27:51;15.20;57.30
17208;DHT22;8720;48.488;9.202;2022-11-15T11:30:38;15.30;57.50
17208;DHT22;8720;48.488;9.202;2022-11-15T11:33:17;15.30;57.30
17208;DHT22;8720;48.488;9.202;2022-11-15T11:35:55;15.30;57.30
17208;DHT22;8720;48.488;9.202;2022-11-15T11:38:39;15.40;57.00
17208;DHT22;8720;48.488;9.202;2022-11-15T11:41:46;15.40;56.70
17208;DHT22;8720;48.488;9.202;2022-11-15T11:44:34;15.40;56.10
17208;DHT22;8720;48.488;9.202;2022-11-15T11:47:18;15.40;56.20
17208;DHT22;8720;48.488;9.202;2022-11-15T11:49:51;15.50;56.80
17208;DHT22;8720;48.488;9.202;2022-11-15T11:52:24;15.50;57.00
17208;DHT22;8720;48.488;9.202;2022-11-15T11:55:02;15.50;56.80
17208;DHT22;8720;48.488;9.202;2022-11-15T11:57:43;15.60;56.60
17208;DHT22;8720;48.488;9.202;2022-11-15T12:00:18;15.60;56.80
17208;DHT22;8720;48.488;9.202;2022-11-15T12:02:55;15.60;56.80
17208;DHT22;8720;48.488;9.202;2022-11-15T12:05:35;15.70;56.70
17208;DHT22;8720;48.488;9.202;2022-11-15T12:08:20;15.70;56.60
17208;DHT22;8720;48.488;9.202;2022-11-15T12:11:00;15.70;56.20
17208;DHT22;8720;48.488;9.202;2022-11-15T12:13:34;15.80;56.20
17208;DHT22;8720;48.488;9.202;2022-11-15T12:16:09;15.80;56.50
17208;DHT22;8720;48.488;9.202;2022-11-15T12:18:44;15.80;56.10
17208;DHT22;8720;48.488;9.202;2022-11-15T12:21:19;15.80;55.90
17208;DHT22;8720;48.488;9.202;2022-11-15T12:23:59;15.80;55.70
17208;DHT22;8720;48.488;9.202;2022-11-15T12:26:36;15.80;55.70
17208;DHT22;8720;48.488;9.202;2022-11-15T12:29:14;15.80;55.50
17208;DHT22;8720;48.488;9.202;2022-11-15T12:31:47;15.80;55.60
17208;DHT22;8720;48.488;9.202;2022-11-15T12:34:40;15.90;56.00
17208;DHT22;8720;48.488;9.202;2022-11-15T12:40:36;15.90;55.20
17208;DHT22;8720;48.488;9.202;2022-11-15T12:49:43;16.00;55.60
17208;DHT22;8720;48.488;9.202;2022-11-15T12:52:14;16.00;55.30
17208;DHT22;8720;48.488;9.202;2022-11-15T12:54:57;16.00;56.30
17208;DHT22;8720;48.488;9.202;2022-11-15T12:57:36;16.10;55.40
17208;DHT22;8720;48.488;9.202;2022-11-15T13:03:23;16.20;55.40
17208;DHT22;8720;48.488;9.202;2022-11-15T13:06:06;16.20;55.40
17208;DHT22;8720;48.488;9.202;2022-11-15T13:08:46;16.30;55.90
17208;DHT22;8720;48.488;9.202;2022-11-15T13:11:42;16.40;55.50
17208;DHT22;8720;48.488;9.202;2022-11-15T13:14:44;16.40;55.20
17208;DHT22;8720;48.488;9.202;2022-11-15T13:17:33;16.50;54.90
17208;DHT22;8720;48.488;9.202;2022-11-15T13:20:21;16.50;55.10
17208;DHT22;8720;48.488;9.202;2022-11-15T13:23:02;16.60;55.00
17208;DHT22;8720;48.488;9.202;2022-11-15T13:28:44;16.60;55.10
17208;DHT22;8720;48.488;9.202;2022-11-15T13:31:21;16.60;55.60
17208;DHT22;8720;48.488;9.202;2022-11-15T13:33:59;16.70;55.40
17208;DHT22;8720;48.488;9.202;2022-11-15T13:36:29;16.60;55.60
17208;DHT22;8720;48.488;9.202;2022-11-15T13:39:02;16.70;55.90
17208;DHT22;8720;48.488;9.202;2022-11-15T13:41:32;16.70;55.90
17208;DHT22;8720;48.488;9.202;2022-11-15T13:44:02;16.70;56.10
17208;DHT22;8720;48.488;9.202;2022-11-15T13:46:32;16.70;56.00
17208;DHT22;8720;48.488;9.202;2022-11-15T13:49:04;16.70;55.70
17208;DHT22;8720;48.488;9.202;2022-11-15T13:51:36;16.70;55.50
17208;DHT22;8720;48.488;9.202;2022-11-15T13:54:15;16.60;55.60
17208;DHT22;8720;48.488;9.202;2022-11-15T13:56:48;16.60;55.40
17208;DHT22;8720;48.488;9.202;2022-11-15T13:59:25;16.60;56.10
17208;DHT22;8720;48.488;9.202;2022-11-15T14:01:56;16.50;56.40
17208;DHT22;8720;48.488;9.202;2022-11-15T14:04:29;16.50;56.50
17208;DHT22;8720;48.488;9.202;2022-11-15T14:07:01;16.50;56.50
17208;DHT22;8720;48.488;9.202;2022-11-15T14:09:37;16.50;56.40
17208;DHT22;8720;48.488;9.202;2022-11-15T14:12:25;16.50;56.20
17208;DHT22;8720;48.488;9.202;2022-11-15T14:14:58;16.40;56.30
17208;DHT22;8720;48.488;9.202;2022-11-15T14:17:37;16.40;56.80
17208;DHT22;8720;48.488;9.202;2022-11-15T14:20:34;16.40;56.80
17208;DHT22;8720;48.488;9.202;2022-11-15T14:23:05;16.40;56.90
17208;DHT22;8720;48.488;9.202;2022-11-15T14:25:54;16.40;57.20
17208;DHT22;8720;48.488;9.202;2022-11-15T14:28:31;16.30;57.30
17208;DHT22;8720;48.488;9.202;2022-11-15T14:31:10;16.30;57.40
17208;DHT22;8720;48.488;9.202;2022-11-15T14:33:39;16.30;57.60
17208;DHT22;8720;48.488;9.202;2022-11-15T14:36:13;16.30;57.90
17208;DHT22;8720;48.488;9.202;2022-11-15T14:38:43;16.30;57.90
17208;DHT22;8720;48.488;9.202;2022-11-15T14:41:18;16.30;58.00
17208;DHT22;8720;48.488;9.202;2022-11-15T14:43:47;16.30;58.00
17208;DHT22;8720;48.488;9.202;2022-11-15T14:46:15;16.30;58.20
17208;DHT22;8720;48.488;9.202;2022-11-15T14:48:42;16.30;58.20
17208;DHT22;8720;48.488;9.202;2022-11-15T14:51:13;16.20;58.30
17208;DHT22;8720;48.488;9.202;2022-11-15T14:53:43;16.20;58.40
17208;DHT22;8720;48.488;9.202;2022-11-15T14:56:12;16.20;58.40
17208;DHT22;8720;48.488;9.202;2022-11-15T14:58:40;16.20;58.50
17208;DHT22;8720;48.488;9.202;2022-11-15T15:01:13;16.20;58.70
17208;DHT22;8720;48.488;9.202;2022-11-15T15:03:44;16.10;58.70
17208;DHT22;8720;48.488;9.202;2022-11-15T15:06:12;16.10;58.80
17208;DHT22;8720;48.488;9.202;2022-11-15T15:08:40;16.10;58.90
17208;DHT22;8720;48.488;9.202;2022-11-15T15:11:11;16.10;59.00
17208;DHT22;8720;48.488;9.202;2022-11-15T15:13:41;16.00;59.00
17208;DHT22;8720;48.488;9.202;2022-11-15T15:16:09;16.00;59.20
17208;DHT22;8720;48.488;9.202;2022-11-15T15:18:36;15.90;59.20
17208;DHT22;8720;48.488;9.202;2022-11-15T15:21:20;15.90;59.40
17208;DHT22;8720;48.488;9.202;2022-11-15T15:23:48;15.80;59.60
17208;DHT22;8720;48.488;9.202;2022-11-15T15:26:16;15.70;59.50
17208;DHT22;8720;48.488;9.202;2022-11-15T15:28:43;15.70;59.80
17208;DHT22;8720;48.488;9.202;2022-11-15T15:31:10;15.60;59.80
17208;DHT22;8720;48.488;9.202;2022-11-15T15:33:38;15.60;60.00
17208;DHT22;8720;48.488;9.202;2022-11-15T15:36:09;15.50;60.10
17208;DHT22;8720;48.488;9.202;2022-11-15T15:38:39;15.40;60.30
17208;DHT22;8720;48.488;9.202;2022-11-15T15:41:10;15.40;60.50
17208;DHT22;8720;48.488;9.202;2022-11-15T15:43:38;15.30;60.60
17208;DHT22;8720;48.488;9.202;2022-11-15T15:46:08;15.30;60.80
17208;DHT22;8720;48.488;9.202;2022-11-15T15:48:38;15.20;61.00
17208;DHT22;8720;48.488;9.202;2022-11-15T15:51:05;15.20;61.20
17208;DHT22;8720;48.488;9.202;2022-11-15T15:53:33;15.20;61.30
17208;DHT22;8720;48.488;9.202;2022-11-15T15:56:02;15.10;61.30
17208;DHT22;8720;48.488;9.202;2022-11-15T15:58:30;15.10;61.50
17208;DHT22;8720;48.488;9.202;2022-11-15T16:00:58;15.10;61.40
17208;DHT22;8720;48.488;9.202;2022-11-15T16:03:25;15.00;61.30
17208;DHT22;8720;48.488;9.202;2022-11-15T16:05:54;15.00;61.30
17208;DHT22;8720;48.488;9.202;2022-11-15T16:08:22;14.90;61.50
17208;DHT22;8720;48.488;9.202;2022-11-15T16:10:52;14.90;61.10
17208;DHT22;8720;48.488;9.202;2022-11-15T16:13:21;14.90;61.20
17208;DHT22;8720;48.488;9.202;2022-11-15T16:15:51;14.90;61.30
17208;DHT22;8720;48.488;9.202;2022-11-15T16:18:21;14.90;61.40
17208;DHT22;8720;48.488;9.202;2022-11-15T16:20:49;14.80;61.50
17208;DHT22;8720;48.488;9.202;2022-11-15T16:23:20;14.80;61.60
17208;DHT22;8720;48.488;9.202;2022-11-15T16:25:51;14.80;61.60
17208;DHT22;8720;48.488;9.202;2022-11-15T16:28:24;14.80;61.70
17208;DHT22;8720;48.488;9.202;2022-11-15T16:31:00;14.80;61.60
17208;DHT22;8720;48.488;9.202;2022-11-15T16:33:30;14.70;62.10
17208;DHT22;8720;48.488;9.202;2022-11-15T16:35:57;14.70;61.40
17208;DHT22;8720;48.488;9.202;2022-11-15T16:38:25;14.70;61.60
17208;DHT22;8720;48.488;9.202;2022-11-15T16:40:52;14.70;61.70
17208;DHT22;8720;48.488;9.202;2022-11-15T16:43:21;14.70;61.80
17208;DHT22;8720;48.488;9.202;2022-11-15T16:45:49;14.70;62.00
17208;DHT22;8720;48.488;9.202;2022-11-15T16:48:21;14.70;62.30
17208;DHT22;8720;48.488;9.202;2022-11-15T16:50:50;14.70;62.40
17208;DHT22;8720;48.488;9.202;2022-11-15T16:53:21;14.70;62.40
17208;DHT22;8720;48.488;9.202;2022-11-15T16:55:49;14.70;62.50
17208;DHT22;8720;48.488;9.202;2022-11-15T16:58:16;14.70;62.50
17208;DHT22;8720;48.488;9.202;2022-11-15T17:00:49;14.70;62.50
17208;DHT22;8720;48.488;9.202;2022-11-15T17:03:18;14.70;62.40
17208;DHT22;8720;48.488;9.202;2022-11-15T17:05:46;14.70;62.40
17208;DHT22;8720;48.488;9.202;2022-11-15T17:08:13;14.80;62.50
17208;DHT22;8720;48.488;9.202;2022-11-15T17:10:40;14.70;62.40
17208;DHT22;8720;48.488;9.202;2022-11-15T17:13:11;14.70;62.30
17208;DHT22;8720;48.488;9.202;2022-11-15T17:15:39;14.80;62.40
17208;DHT22;8720;48.488;9.202;2022-11-15T17:18:09;14.80;62.30
17208;DHT22;8720;48.488;9.202;2022-11-15T17:20:39;14.80;62.20
17208;DHT22;8720;48.488;9.202;2022-11-15T17:23:11;14.80;62.20
17208;DHT22;8720;48.488;9.202;2022-11-15T17:25:41;14.80;61.90
17208;DHT22;8720;48.488;9.202;2022-11-15T17:28:09;14.80;61.80
17208;DHT22;8720;48.488;9.202;2022-11-15T17:30:40;14.70;61.60
17208;DHT22;8720;48.488;9.202;2022-11-15T17:33:09;14.70;61.40
17208;DHT22;8720;48.488;9.202;2022-11-15T17:35:36;14.70;61.40
17208;DHT22;8720;48.488;9.202;2022-11-15T17:38:03;14.70;61.50
17208;DHT22;8720;48.488;9.202;2022-11-15T17:40:31;14.70;61.30
17208;DHT22;8720;48.488;9.202;2022-11-15T17:42:58;14.70;61.20
17208;DHT22;8720;48.488;9.202;2022-11-15T17:45:25;14.70;60.90
17208;DHT22;8720;48.488;9.202;2022-11-15T17:47:53;14.70;60.70